UCT Elwood — V7HW9 — position and weather

sailwx.info

Track history (hours):
 
Tides and Currents Weather Stations Pressure Air Temp Water Temp Dewpoint Dewpoint Depression Visibility Wind Speed Wind Dir Waves Ship Positions

UCT Elwood

Last reported at 2017-Aug-02 15:52 UTC. Time now 2017-Aug-23 19:19 UTC.
Position S 26°45' W 046°12'.
Warning: this ship's position is 21 days out of date.

Length 198 m; draft 6.8 m.

Type: Cargo ship. MMSI: 538006163.

Date/timePositionNaut miles runAvg speedWind from/ knotsBaromVisibWave heightAir tempDewpointWater temp
2017-Aug-02 15:52S 26°45' W 046°12'713.5
2017-Aug-02 15:18S 26°38' W 046°09'1113.4
2017-Aug-02 14:30S 26°27' W 046°05'1313.0
2017-Aug-02 13:30S 26°15' W 046°01'612.9
2017-Aug-02 13:00S 26°09' W 045°59'712.8
2017-Aug-02 12:29S 26°03' W 045°57'712.6
2017-Aug-02 11:56S 25°56' W 045°55'1012.7
2017-Aug-02 11:07S 25°46' W 045°52'112.5
2017-Aug-02 11:00S 25°44' W 045°51'712.5
2017-Aug-02 10:25S 25°37' W 045°49'512.4
2017-Aug-02 10:00S 25°33' W 045°47'612.2
2017-Aug-02 09:30S 25°27' W 045°45'612.2
2017-Aug-02 09:00S 25°21' W 045°43'612.3
2017-Aug-02 08:30S 25°15' W 045°41'612.3
2017-Aug-02 08:00S 25°09' W 045°39'612.3
2017-Aug-02 07:30S 25°03' W 045°42'612.3
2017-Aug-02 07:00S 24°57' W 045°44'612.4
2017-Aug-02 06:30S 24°52' W 045°46'612.5
2017-Aug-02 06:00S 24°46' W 045°49'612.4
2017-Aug-02 05:30S 24°40' W 045°51'612.3
2017-Aug-02 05:00S 24°34' W 045°53'612.3
2017-Aug-02 04:30S 24°28' W 045°55'612.3
2017-Aug-02 04:00S 24°22' W 045°58'612.3
2017-Aug-02 03:30S 24°17' W 045°60'612.2
2017-Aug-02 03:00S 24°11' W 046°02'2 4.1
2017-Aug-02 02:29S 24°09' W 046°03'0 0.0
2017-Aug-02 01:59S 24°09' W 046°03'  
2017-Jul-29 18:56S 24°09' W 046°03'0 0.0
2017-Jul-29 18:14S 24°09' W 046°03'0 0.0
2017-Jul-29 17:08S 24°09' W 046°03'0 0.0
2017-Jul-29 16:41S 24°09' W 046°03'0 0.1
2017-Jul-29 16:29S 24°09' W 046°03'0 0.0
2017-Jul-29 15:59S 24°09' W 046°03'0 0.0
2017-Jul-29 15:29S 24°09' W 046°03'0 0.0
2017-Jul-29 14:59S 24°09' W 046°03'5 5.2
2017-Jul-29 14:00S 24°09' W 046°08'611.6
2017-Jul-29 13:30S 24°07' W 046°15'611.8
2017-Jul-29 13:00S 24°03' W 046°20'4 7.8
2017-Jul-29 12:30S 23°60' W 046°19'3 5.9
2017-Jul-29 11:58S 23°56' W 046°19'  
2017-Jul-27 01:22S 23°55' W 046°22'3 7.1
2017-Jul-27 00:52S 23°56' W 046°19'3 8.2
2017-Jul-27 00:30S 23°59' W 046°17'4 8.7
2017-Jul-27 00:00S 24°02' W 046°21'510.9
2017-Jul-26 23:30S 24°07' W 046°22'611.7
2017-Jul-26 23:00S 24°13' W 046°20'3 5.1
2017-Jul-26 22:30S 24°14' W 046°17'0 0.1
2017-Jul-26 21:55S 24°14' W 046°17'0 0.1
2017-Jul-26 21:22S 24°14' W 046°17'0 0.1
2017-Jul-26 20:58S 24°14' W 046°17'0 0.1
2017-Jul-26 20:28S 24°14' W 046°17'0 0.1
2017-Jul-26 19:58S 24°14' W 046°17'0 0.1
2017-Jul-26 19:22S 24°14' W 046°17'0 0.0
2017-Jul-26 18:46S 24°14' W 046°17'0 0.0
2017-Jul-26 18:19S 24°14' W 046°17'0 0.2
2017-Jul-26 17:58S 24°14' W 046°17'0 0.0
2017-Jul-26 17:28S 24°14' W 046°17'0 0.0
2017-Jul-26 16:52S 24°14' W 046°17'0 0.1
2017-Jul-26 16:16S 24°14' W 046°17'0 0.2
2017-Jul-26 15:58S 24°14' W 046°17'0 0.0
2017-Jul-26 15:28S 24°14' W 046°17'0 0.0
2017-Jul-26 14:58S 24°14' W 046°17'0 0.0
2017-Jul-26 13:58S 24°14' W 046°17'0 0.0
2017-Jul-26 13:28S 24°14' W 046°17'0 0.0
2017-Jul-26 12:58S 24°14' W 046°17'0 0.0
2017-Jul-26 12:28S 24°14' W 046°17'0 0.0
2017-Jul-26 11:58S 24°14' W 046°17'0 0.0
2017-Jul-26 11:19S 24°14' W 046°17'0 0.0
2017-Jul-26 10:58S 24°14' W 046°17'0 0.0
2017-Jul-26 10:28S 24°14' W 046°17'0 0.0
2017-Jul-26 09:58S 24°14' W 046°17'0 0.0
2017-Jul-26 09:28S 24°14' W 046°17'0 0.1
2017-Jul-26 08:58S 24°14' W 046°17'0 0.1
2017-Jul-26 08:28S 24°14' W 046°17'0 0.1
2017-Jul-26 07:52S 24°14' W 046°17'0 0.1
2017-Jul-26 07:28S 24°14' W 046°17'0 0.1
2017-Jul-26 06:58S 24°14' W 046°17'0 0.0
2017-Jul-26 06:22S 24°14' W 046°17'0 0.0
2017-Jul-26 05:52S 24°14' W 046°17'0 0.0
2017-Jul-26 05:28S 24°14' W 046°17'0 0.0
2017-Jul-26 04:55S 24°14' W 046°17'0 0.0
2017-Jul-26 04:28S 24°14' W 046°17'0 0.0
2017-Jul-26 03:58S 24°14' W 046°17'0 0.0
2017-Jul-26 03:28S 24°14' W 046°17'0 0.0
2017-Jul-26 02:58S 24°14' W 046°17'0 0.0
2017-Jul-26 02:22S 24°14' W 046°17'0 0.0
2017-Jul-26 01:58S 24°14' W 046°17'0 0.0
2017-Jul-26 01:25S 24°14' W 046°17'0 0.0
2017-Jul-26 00:55S 24°14' W 046°17'0 0.0
2017-Jul-26 00:25S 24°14' W 046°17'0 0.0
2017-Jul-25 23:58S 24°14' W 046°17'0 0.0
2017-Jul-25 23:28S 24°14' W 046°17'0 0.0
2017-Jul-25 22:58S 24°14' W 046°17'0 0.0
2017-Jul-25 22:28S 24°14' W 046°17'0 0.0
2017-Jul-25 21:58S 24°14' W 046°17'0 0.0
2017-Jul-25 21:22S 24°14' W 046°17'0 0.0
2017-Jul-25 20:58S 24°14' W 046°17'0 0.0
2017-Jul-25 20:16S 24°14' W 046°17'0 0.0
2017-Jul-25 19:58S 24°14' W 046°17'0 0.0
2017-Jul-25 19:28S 24°14' W 046°17'0 0.0
2017-Jul-25 18:58S 24°14' W 046°17'0 0.0
2017-Jul-25 18:19S 24°14' W 046°17'0 0.0
2017-Jul-25 17:58S 24°14' W 046°17'0 0.0
2017-Jul-25 17:28S 24°14' W 046°17'0 0.0
2017-Jul-25 16:58S 24°14' W 046°17'0 0.0
2017-Jul-25 16:28S 24°14' W 046°17'0 0.0
2017-Jul-25 15:58S 24°14' W 046°17'0 0.0
2017-Jul-25 15:28S 24°14' W 046°17'0 0.0
2017-Jul-25 14:58S 24°14' W 046°17'0 0.1
2017-Jul-25 13:58S 24°14' W 046°17'0 0.0
2017-Jul-25 13:28S 24°14' W 046°17'0 0.1
2017-Jul-25 12:58S 24°14' W 046°17'0 0.0
2017-Jul-25 12:25S 24°14' W 046°17'0 0.0
2017-Jul-25 11:55S 24°14' W 046°17'0 0.0
2017-Jul-25 11:28S 24°14' W 046°17'0 0.0
2017-Jul-25 10:58S 24°14' W 046°17'0 0.0
2017-Jul-25 10:28S 24°14' W 046°17'0 0.0
2017-Jul-25 09:46S 24°14' W 046°17'0 0.0
2017-Jul-25 09:16S 24°14' W 046°17'0 0.3
2017-Jul-25 08:59S 24°14' W 046°17'2 3.8
2017-Jul-25 08:30S 24°16' W 046°18'5 9.5
2017-Jul-25 08:00S 24°19' W 046°22'713.1
2017-Jul-25 07:30S 24°24' W 046°26'612.8
2017-Jul-25 07:00S 24°29' W 046°31'613.0
2017-Jul-25 06:30S 24°34' W 046°36'712.9
2017-Jul-25 06:00S 24°39' W 046°40'612.9
2017-Jul-25 05:30S 24°44' W 046°45'613.0
2017-Jul-25 05:00S 24°48' W 046°50'613.0
2017-Jul-25 04:30S 24°53' W 046°55'612.8
2017-Jul-25 04:00S 24°58' W 047°00'612.9
2017-Jul-25 03:30S 25°02' W 047°05'612.9
2017-Jul-25 03:00S 25°07' W 047°10'612.9
2017-Jul-25 02:30S 25°12' W 047°14'612.9
2017-Jul-25 02:00S 25°17' W 047°19'612.8
2017-Jul-25 01:30S 25°21' W 047°24'612.9
2017-Jul-25 01:00S 25°26' W 047°29'612.8
2017-Jul-25 00:30S 25°31' W 047°34'612.9
2017-Jul-25 00:00S 25°35' W 047°39'713.0
2017-Jul-24 23:30S 25°40' W 047°43'612.9
2017-Jul-24 23:00S 25°45' W 047°48'612.8
2017-Jul-24 22:30S 25°50' W 047°53'712.9
2017-Jul-24 22:00S 25°55' W 047°58'613.0
2017-Jul-24 21:30S 25°59' W 048°03'612.8
2017-Jul-24 21:00S 26°04' W 048°07'812.8
2017-Jul-24 20:22S 26°10' W 048°14'513.0
2017-Jul-24 20:00S 26°12' W 048°19'713.3
2017-Jul-24 19:30S 26°12' W 048°26'  
Track history (hours):
 
Tides and Currents Weather Stations Pressure Air Temp Water Temp Dewpoint Dewpoint Depression Visibility Wind Speed Wind Dir Waves Ship Positions

UCT Elwood

Last reported at 2017-Aug-02 15:52 UTC. Time now 2017-Aug-23 19:19 UTC.
Position S 26°45' W 046°12'.
Warning: this ship's position is 21 days out of date.

Length 198 m; draft 6.8 m.

Type: Cargo ship. MMSI: 538006163.

Date/timePositionNaut miles runAvg speedWind from/ knotsBaromVisibWave heightAir tempDewpointWater temp
2017-Aug-02 15:52S 26°45' W 046°12'713.5
2017-Aug-02 15:18S 26°38' W 046°09'1113.4
2017-Aug-02 14:30S 26°27' W 046°05'1313.0
2017-Aug-02 13:30S 26°15' W 046°01'612.9
2017-Aug-02 13:00S 26°09' W 045°59'712.8
2017-Aug-02 12:29S 26°03' W 045°57'712.6
2017-Aug-02 11:56S 25°56' W 045°55'1012.7
2017-Aug-02 11:07S 25°46' W 045°52'112.5
2017-Aug-02 11:00S 25°44' W 045°51'712.5
2017-Aug-02 10:25S 25°37' W 045°49'512.4
2017-Aug-02 10:00S 25°33' W 045°47'612.2
2017-Aug-02 09:30S 25°27' W 045°45'612.2
2017-Aug-02 09:00S 25°21' W 045°43'612.3
2017-Aug-02 08:30S 25°15' W 045°41'612.3
2017-Aug-02 08:00S 25°09' W 045°39'612.3
2017-Aug-02 07:30S 25°03' W 045°42'612.3
2017-Aug-02 07:00S 24°57' W 045°44'612.4
2017-Aug-02 06:30S 24°52' W 045°46'612.5
2017-Aug-02 06:00S 24°46' W 045°49'612.4
2017-Aug-02 05:30S 24°40' W 045°51'612.3
2017-Aug-02 05:00S 24°34' W 045°53'612.3
2017-Aug-02 04:30S 24°28' W 045°55'612.3
2017-Aug-02 04:00S 24°22' W 045°58'612.3
2017-Aug-02 03:30S 24°17' W 045°60'612.2
2017-Aug-02 03:00S 24°11' W 046°02'2 4.1
2017-Aug-02 02:29S 24°09' W 046°03'0 0.0
2017-Aug-02 01:59S 24°09' W 046°03'  
2017-Jul-29 18:56S 24°09' W 046°03'0 0.0
2017-Jul-29 18:14S 24°09' W 046°03'0 0.0
2017-Jul-29 17:08S 24°09' W 046°03'0 0.0
2017-Jul-29 16:41S 24°09' W 046°03'0 0.1
2017-Jul-29 16:29S 24°09' W 046°03'0 0.0
2017-Jul-29 15:59S 24°09' W 046°03'0 0.0
2017-Jul-29 15:29S 24°09' W 046°03'0 0.0
2017-Jul-29 14:59S 24°09' W 046°03'5 5.2
2017-Jul-29 14:00S 24°09' W 046°08'611.6
2017-Jul-29 13:30S 24°07' W 046°15'611.8
2017-Jul-29 13:00S 24°03' W 046°20'4 7.8
2017-Jul-29 12:30S 23°60' W 046°19'3 5.9
2017-Jul-29 11:58S 23°56' W 046°19'  
2017-Jul-27 01:22S 23°55' W 046°22'3 7.1
2017-Jul-27 00:52S 23°56' W 046°19'3 8.2
2017-Jul-27 00:30S 23°59' W 046°17'4 8.7
2017-Jul-27 00:00S 24°02' W 046°21'510.9
2017-Jul-26 23:30S 24°07' W 046°22'611.7
2017-Jul-26 23:00S 24°13' W 046°20'3 5.1
2017-Jul-26 22:30S 24°14' W 046°17'0 0.1
2017-Jul-26 21:55S 24°14' W 046°17'0 0.1
2017-Jul-26 21:22S 24°14' W 046°17'0 0.1
2017-Jul-26 20:58S 24°14' W 046°17'0 0.1
2017-Jul-26 20:28S 24°14' W 046°17'0 0.1
2017-Jul-26 19:58S 24°14' W 046°17'0 0.1
2017-Jul-26 19:22S 24°14' W 046°17'0 0.0
2017-Jul-26 18:46S 24°14' W 046°17'0 0.0
2017-Jul-26 18:19S 24°14' W 046°17'0 0.2
2017-Jul-26 17:58S 24°14' W 046°17'0 0.0
2017-Jul-26 17:28S 24°14' W 046°17'0 0.0
2017-Jul-26 16:52S 24°14' W 046°17'0 0.1
2017-Jul-26 16:16S 24°14' W 046°17'0 0.2
2017-Jul-26 15:58S 24°14' W 046°17'0 0.0
2017-Jul-26 15:28S 24°14' W 046°17'0 0.0
2017-Jul-26 14:58S 24°14' W 046°17'0 0.0
2017-Jul-26 13:58S 24°14' W 046°17'0 0.0
2017-Jul-26 13:28S 24°14' W 046°17'0 0.0
2017-Jul-26 12:58S 24°14' W 046°17'0 0.0
2017-Jul-26 12:28S 24°14' W 046°17'0 0.0
2017-Jul-26 11:58S 24°14' W 046°17'0 0.0
2017-Jul-26 11:19S 24°14' W 046°17'0 0.0
2017-Jul-26 10:58S 24°14' W 046°17'0 0.0
2017-Jul-26 10:28S 24°14' W 046°17'0 0.0
2017-Jul-26 09:58S 24°14' W 046°17'0 0.0
2017-Jul-26 09:28S 24°14' W 046°17'0 0.1
2017-Jul-26 08:58S 24°14' W 046°17'0 0.1
2017-Jul-26 08:28S 24°14' W 046°17'0 0.1
2017-Jul-26 07:52S 24°14' W 046°17'0 0.1
2017-Jul-26 07:28S 24°14' W 046°17'0 0.1
2017-Jul-26 06:58S 24°14' W 046°17'0 0.0
2017-Jul-26 06:22S 24°14' W 046°17'0 0.0
2017-Jul-26 05:52S 24°14' W 046°17'0 0.0
2017-Jul-26 05:28S 24°14' W 046°17'0 0.0
2017-Jul-26 04:55S 24°14' W 046°17'0 0.0
2017-Jul-26 04:28S 24°14' W 046°17'0 0.0
2017-Jul-26 03:58S 24°14' W 046°17'0 0.0
2017-Jul-26 03:28S 24°14' W 046°17'0 0.0
2017-Jul-26 02:58S 24°14' W 046°17'0 0.0
2017-Jul-26 02:22S 24°14' W 046°17'0 0.0
2017-Jul-26 01:58S 24°14' W 046°17'0 0.0
2017-Jul-26 01:25S 24°14' W 046°17'0 0.0
2017-Jul-26 00:55S 24°14' W 046°17'0 0.0
2017-Jul-26 00:25S 24°14' W 046°17'0 0.0
2017-Jul-25 23:58S 24°14' W 046°17'0 0.0
2017-Jul-25 23:28S 24°14' W 046°17'0 0.0
2017-Jul-25 22:58S 24°14' W 046°17'0 0.0
2017-Jul-25 22:28S 24°14' W 046°17'0 0.0
2017-Jul-25 21:58S 24°14' W 046°17'0 0.0
2017-Jul-25 21:22S 24°14' W 046°17'0 0.0
2017-Jul-25 20:58S 24°14' W 046°17'0 0.0
2017-Jul-25 20:16S 24°14' W 046°17'0 0.0
2017-Jul-25 19:58S 24°14' W 046°17'0 0.0
2017-Jul-25 19:28S 24°14' W 046°17'0 0.0
2017-Jul-25 18:58S 24°14' W 046°17'0 0.0
2017-Jul-25 18:19S 24°14' W 046°17'0 0.0
2017-Jul-25 17:58S 24°14' W 046°17'0 0.0
2017-Jul-25 17:28S 24°14' W 046°17'0 0.0
2017-Jul-25 16:58S 24°14' W 046°17'0 0.0
2017-Jul-25 16:28S 24°14' W 046°17'0 0.0
2017-Jul-25 15:58S 24°14' W 046°17'0 0.0
2017-Jul-25 15:28S 24°14' W 046°17'0 0.0
2017-Jul-25 14:58S 24°14' W 046°17'0 0.1
2017-Jul-25 13:58S 24°14' W 046°17'0 0.0
2017-Jul-25 13:28S 24°14' W 046°17'0 0.1
2017-Jul-25 12:58S 24°14' W 046°17'0 0.0
2017-Jul-25 12:25S 24°14' W 046°17'0 0.0
2017-Jul-25 11:55S 24°14' W 046°17'0 0.0
2017-Jul-25 11:28S 24°14' W 046°17'0 0.0
2017-Jul-25 10:58S 24°14' W 046°17'0 0.0
2017-Jul-25 10:28S 24°14' W 046°17'0 0.0
2017-Jul-25 09:46S 24°14' W 046°17'0 0.0
2017-Jul-25 09:16S 24°14' W 046°17'0 0.3
2017-Jul-25 08:59S 24°14' W 046°17'2 3.8
2017-Jul-25 08:30S 24°16' W 046°18'5 9.5
2017-Jul-25 08:00S 24°19' W 046°22'713.1
2017-Jul-25 07:30S 24°24' W 046°26'612.8
2017-Jul-25 07:00S 24°29' W 046°31'613.0
2017-Jul-25 06:30S 24°34' W 046°36'712.9
2017-Jul-25 06:00S 24°39' W 046°40'612.9
2017-Jul-25 05:30S 24°44' W 046°45'613.0
2017-Jul-25 05:00S 24°48' W 046°50'613.0
2017-Jul-25 04:30S 24°53' W 046°55'612.8
2017-Jul-25 04:00S 24°58' W 047°00'612.9
2017-Jul-25 03:30S 25°02' W 047°05'612.9
2017-Jul-25 03:00S 25°07' W 047°10'612.9
2017-Jul-25 02:30S 25°12' W 047°14'612.9
2017-Jul-25 02:00S 25°17' W 047°19'612.8
2017-Jul-25 01:30S 25°21' W 047°24'612.9
2017-Jul-25 01:00S 25°26' W 047°29'612.8
2017-Jul-25 00:30S 25°31' W 047°34'612.9
2017-Jul-25 00:00S 25°35' W 047°39'713.0
2017-Jul-24 23:30S 25°40' W 047°43'612.9
2017-Jul-24 23:00S 25°45' W 047°48'612.8
2017-Jul-24 22:30S 25°50' W 047°53'712.9
2017-Jul-24 22:00S 25°55' W 047°58'613.0
2017-Jul-24 21:30S 25°59' W 048°03'612.8
2017-Jul-24 21:00S 26°04' W 048°07'812.8
2017-Jul-24 20:22S 26°10' W 048°14'513.0
2017-Jul-24 20:00S 26°12' W 048°19'713.3
2017-Jul-24 19:30S 26°12' W 048°26'  

Dump ship's entire track history